Time;durP1;ratioP1;P1;durP2;ratioP2;P2;SDS_P1;SDS_P2;PMS_P1;PMS_P2;Temp;Humidity;BMP_temperature;BMP_pressure;BME280_temperature;BME280_humidity;BME280_pressure;Samples;Min_cycle;Max_cycle;Signal;HPM_P1;HPM_P2
2022/11/15 00:00:56;;;;;;;18.97;11.20;;;7.60;99.90;;;;;;5006526;28;20214;-64
2022/11/15 00:03:25;;;;;;;15.93;11.07;;;7.50;99.90;;;;;;4980687;28;20232;-63
2022/11/15 00:05:52;;;;;;;17.20;11.93;;;7.60;99.90;;;;;;5001626;28;20206;-63
2022/11/15 00:08:19;;;;;;;15.63;10.97;;;;;;;;;;4995371;28;20238;-63
2022/11/15 00:10:55;;;;;;;15.97;11.03;;;7.50;99.90;;;;;;4979637;28;20202;-63
2022/11/15 00:13:22;;;;;;;16.90;10.77;;;7.50;99.90;;;;;;5007261;28;20225;-63
2022/11/15 00:15:50;;;;;;;17.17;10.97;;;7.50;99.90;;;;;;4997965;28;20221;-63
2022/11/15 00:18:18;;;;;;;17.23;11.33;;;7.40;99.90;;;;;;4992465;28;20234;-63
2022/11/15 00:20:45;;;;;;;19.50;11.07;;;7.40;99.90;;;;;;4997703;28;20226;-63
2022/11/15 00:23:12;;;;;;;16.70;10.60;;;7.40;99.90;;;;;;5005197;28;20834;-63
2022/11/15 00:25:39;;;;;;;19.67;10.77;;;7.40;99.90;;;;;;4978264;28;20240;-63
2022/11/15 00:28:05;;;;;;;17.80;10.93;;;7.40;99.90;;;;;;4980010;28;20273;-63
2022/11/15 00:30:32;;;;;;;16.57;10.87;;;7.40;99.90;;;;;;5000549;28;20236;-63
2022/11/15 00:33:04;;;;;;;17.73;11.17;;;7.40;99.90;;;;;;4999098;28;20215;-63
2022/11/15 00:35:33;;;;;;;22.03;11.40;;;7.30;99.90;;;;;;4993508;28;20202;-63
2022/11/15 00:38:00;;;;;;;17.33;10.90;;;7.30;99.90;;;;;;4996561;28;20256;-63
2022/11/15 00:40:27;;;;;;;23.80;12.10;;;7.20;99.90;;;;;;4987566;28;20241;-63
2022/11/15 00:42:53;;;;;;;16.80;10.83;;;7.20;99.90;;;;;;4980744;28;20222;-62
2022/11/15 00:45:20;;;;;;;19.73;11.20;;;7.20;99.90;;;;;;5002375;28;20210;-63
2022/11/15 00:47:47;;;;;;;18.43;11.63;;;7.20;99.90;;;;;;4993315;28;20207;-63
2022/11/15 00:50:16;;;;;;;16.87;11.00;;;7.10;99.90;;;;;;4996349;28;20210;-63
2022/11/15 00:52:43;;;;;;;18.23;10.30;;;7.10;99.90;;;;;;4995034;28;20209;-62
2022/11/15 00:55:14;;;;;;;14.40;10.27;;;7.10;99.90;;;;;;4994391;28;20198;-63
2022/11/15 00:57:40;;;;;;;24.57;11.47;;;7.10;99.90;;;;;;4962595;28;20215;-63
2022/11/15 01:00:08;;;;;;;16.47;10.50;;;7.10;99.90;;;;;;5007960;28;20230;-63
2022/11/15 01:02:35;;;;;;;18.90;11.20;;;7.20;99.90;;;;;;4984335;28;20299;-63
2022/11/15 01:05:03;;;;;;;18.93;10.60;;;7.20;99.90;;;;;;4994434;28;20225;-63
2022/11/15 01:07:31;;;;;;;16.93;10.67;;;7.20;99.90;;;;;;4988600;28;20242;-63
2022/11/15 01:09:58;;;;;;;15.40;10.23;;;7.20;99.90;;;;;;5004545;28;20253;-63
2022/11/15 01:12:25;;;;;;;18.50;10.73;;;7.20;99.90;;;;;;4966661;28;21294;-62
2022/11/15 01:14:52;;;;;;;14.47;9.87;;;7.20;99.90;;;;;;4999051;28;21249;-63
2022/11/15 01:17:18;;;;;;;14.97;10.27;;;7.20;99.90;;;;;;5008329;28;20232;-62
2022/11/15 01:19:45;;;;;;;13.87;9.40;;;7.20;99.90;;;;;;4979820;28;20229;-63
2022/11/15 01:22:12;;;;;;;16.80;10.23;;;7.20;99.90;;;;;;5004903;28;20222;-63
2022/11/15 01:24:40;;;;;;;13.77;9.57;;;7.10;99.90;;;;;;4996543;28;20232;-63
2022/11/15 01:27:07;;;;;;;18.23;10.93;;;7.10;99.90;;;;;;4986133;28;20213;-63
2022/11/15 01:29:34;;;;;;;16.30;10.27;;;7.10;99.90;;;;;;4975977;28;20229;-63
2022/11/15 01:32:01;;;;;;;17.43;10.40;;;7.10;99.90;;;;;;4998861;28;20210;-63
2022/11/15 01:34:28;;;;;;;16.00;9.80;;;7.10;99.90;;;;;;4983102;28;20233;-63
2022/11/15 01:36:54;;;;;;;15.83;10.37;;;7.00;99.90;;;;;;4995212;28;20230;-62
2022/11/15 01:39:21;;;;;;;13.50;10.27;;;7.00;99.90;;;;;;4994281;28;20238;-62
2022/11/15 01:41:49;;;;;;;17.50;10.57;;;7.00;99.90;;;;;;5004570;28;20221;-62
2022/11/15 01:44:42;;;;;;;15.23;9.50;;;7.00;99.90;;;;;;4979121;28;20616;-63
2022/11/15 01:47:14;;;;;;;14.10;9.20;;;6.90;99.90;;;;;;5009313;28;20229;-62
2022/11/15 01:49:51;;;;;;;15.47;9.83;;;6.90;99.90;;;;;;4983300;28;20230;-63
2022/11/15 01:52:21;;;;;;;13.03;9.17;;;7.00;99.90;;;;;;4990721;28;20221;-63
2022/11/15 01:54:49;;;;;;;15.50;9.10;;;6.80;99.90;;;;;;4989157;28;20222;-63
2022/11/15 01:57:17;;;;;;;13.97;9.47;;;6.80;99.90;;;;;;4997985;28;20198;-63
2022/11/15 01:59:46;;;;;;;12.60;8.53;;;6.60;99.90;;;;;;4969566;28;20238;-63
2022/11/15 02:02:14;;;;;;;18.30;9.33;;;6.60;99.90;;;;;;4986870;28;20222;-63
2022/11/15 02:04:42;;;;;;;14.93;8.87;;;6.60;99.90;;;;;;4997845;28;20226;-62
2022/11/15 02:07:12;;;;;;;14.10;8.87;;;6.60;99.90;;;;;;4994743;28;20246;-61
2022/11/15 02:09:40;;;;;;;15.53;9.13;;;6.50;99.90;;;;;;4991670;28;20227;-63
2022/11/15 02:12:09;;;;;;;15.80;8.47;;;6.50;99.90;;;;;;5000876;28;23807;-62
2022/11/15 02:14:40;;;;;;;12.80;8.20;;;6.50;99.90;;;;;;4972145;28;20256;-63
2022/11/15 02:17:26;;;;;;;16.33;9.10;;;6.40;99.90;;;;;;4997296;28;20229;-63
2022/11/15 02:20:21;;;;;;;14.97;9.00;;;6.50;99.90;;;;;;4985929;28;23446;-63
2022/11/15 02:23:00;;;;;;;13.33;9.30;;;6.50;99.90;;;;;;4998865;28;20750;-62
2022/11/15 02:25:40;;;;;;;13.40;9.47;;;6.50;99.90;;;;;;4985865;28;20213;-63
2022/11/15 02:28:45;;;;;;;14.83;9.53;;;6.40;99.90;;;;;;5007621;28;20600;-63
2022/11/15 02:31:21;;;;;;;14.87;8.97;;;6.40;99.90;;;;;;4969201;28;20209;-63
2022/11/15 02:33:54;;;;;;;13.30;8.87;;;6.40;99.90;;;;;;4991492;28;20217;-63
2022/11/15 02:36:31;;;;;;;13.53;9.10;;;6.40;99.90;;;;;;4986560;28;20210;-62
2022/11/15 02:39:04;;;;;;;14.77;8.70;;;6.40;99.90;;;;;;4997275;28;20203;-63
2022/11/15 02:41:41;;;;;;;14.20;9.00;;;6.50;99.90;;;;;;4980566;28;20206;-62
2022/11/15 02:44:13;;;;;;;12.97;8.77;;;6.60;99.90;;;;;;5004201;28;20211;-62
2022/11/15 02:49:34;;;;;;;16.63;9.63;;;6.70;99.90;;;;;;5013024;28;20309;-63
2022/11/15 02:52:01;;;;;;;14.30;9.17;;;6.80;99.90;;;;;;4990766;28;20651;-63
2022/11/15 02:54:31;;;;;;;15.13;9.10;;;6.90;99.90;;;;;;4993727;28;20218;-63
2022/11/15 02:57:03;;;;;;;13.63;9.67;;;6.90;99.90;;;;;;4987504;28;20232;-63
2022/11/15 02:59:46;;;;;;;14.97;9.90;;;7.00;99.90;;;;;;5009312;28;20233;-63
2022/11/15 03:02:26;;;;;;;15.43;9.83;;;7.10;99.90;;;;;;4968730;28;20212;-63
2022/11/15 03:04:56;;;;;;;16.37;10.23;;;6.90;99.90;;;;;;4994456;28;20222;-62
2022/11/15 03:07:30;;;;;;;13.93;9.77;;;7.30;99.90;;;;;;4991762;28;20228;-63
2022/11/15 03:10:05;;;;;;;17.33;9.63;;;7.30;99.90;;;;;;5010420;28;20336;-63
2022/11/15 03:12:38;;;;;;;13.57;9.07;;;7.40;99.90;;;;;;5028570;28;20220;-63
2022/11/15 03:15:10;;;;;;;13.53;9.30;;;7.50;99.90;;;;;;5006264;28;20222;-63
2022/11/15 03:17:43;;;;;;;15.43;9.80;;;7.50;99.90;;;;;;5029046;28;23452;-62
2022/11/15 03:20:14;;;;;;;18.13;10.40;;;7.60;99.90;;;;;;5008444;28;20761;-62
2022/11/15 03:22:44;;;;;;;12.70;9.37;;;7.60;99.90;;;;;;5014354;28;20236;-63
2022/11/15 03:25:15;;;;;;;14.57;10.07;;;7.70;99.90;;;;;;5006981;28;20298;-63
2022/11/15 03:27:47;;;;;;;13.70;9.70;;;7.70;99.90;;;;;;5014271;28;20340;-64
2022/11/15 03:30:15;;;;;;;20.17;10.10;;;7.80;99.90;;;;;;5015531;28;20225;-63
2022/11/15 03:32:48;;;;;;;19.10;10.17;;;7.80;99.90;;;;;;5007607;28;20509;-63
2022/11/15 03:35:21;;;;;;;16.43;9.90;;;7.90;99.90;;;;;;5010713;28;20221;-63
2022/11/15 03:37:54;;;;;;;16.53;9.43;;;7.90;99.90;;;;;;5010173;28;20591;-63
2022/11/15 03:40:26;;;;;;;15.70;9.87;;;8.00;99.90;;;;;;4995622;28;20238;-62
2022/11/15 03:43:03;;;;;;;14.47;9.67;;;8.00;99.90;;;;;;5008251;28;20218;-63
2022/11/15 03:45:36;;;;;;;17.80;9.67;;;8.10;99.90;;;;;;5006544;28;20232;-63
2022/11/15 03:48:11;;;;;;;17.57;10.37;;;8.10;99.90;;;;;;5011461;28;20217;-63
2022/11/15 03:50:38;;;;;;;15.67;9.60;;;8.10;99.90;;;;;;4992948;28;21961;-63
2022/11/15 03:53:05;;;;;;;18.00;9.70;;;8.20;99.90;;;;;;5010024;28;20225;-63
2022/11/15 03:55:33;;;;;;;12.70;8.97;;;8.20;99.90;;;;;;5003952;28;20225;-62
2022/11/15 03:58:01;;;;;;;15.73;10.00;;;8.20;99.90;;;;;;5018018;28;20225;-63
2022/11/15 04:00:29;;;;;;;21.17;10.88;;;8.20;99.90;;;;;;5005776;28;21265;-63
2022/11/15 04:02:55;;;;;;;17.48;9.93;;;8.30;99.90;;;;;;5019703;28;20687;-63
2022/11/15 04:05:24;;;;;;;17.43;10.47;;;8.30;99.90;;;;;;4984302;28;20229;-63
2022/11/15 04:07:51;;;;;;;16.93;10.63;;;8.30;99.90;;;;;;5021590;28;20264;-63
2022/11/15 04:10:17;;;;;;;17.73;10.17;;;8.30;99.90;;;;;;5022545;28;20205;-63
2022/11/15 04:12:47;;;;;;;17.37;9.90;;;8.40;99.90;;;;;;5002589;28;20800;-63
2022/11/15 04:15:18;;;;;;;22.03;11.60;;;8.40;99.90;;;;;;5030756;28;20208;-63
2022/11/15 04:17:47;;;;;;;21.27;10.77;;;8.40;99.90;;;;;;5010573;28;20630;-63
2022/11/15 04:25:50;;;;;;;29.03;11.43;;;8.50;99.90;;;;;;5001350;28;20221;-63
2022/11/15 04:28:17;;;;;;;23.87;12.17;;;8.60;99.90;;;;;;5018149;28;20228;-62
2022/11/15 04:30:43;;;;;;;19.07;10.60;;;8.60;99.90;;;;;;4999247;28;20910;-63
2022/11/15 04:33:10;;;;;;;19.25;10.18;;;8.60;99.90;;;;;;5011689;28;21177;-62
2022/11/15 04:35:37;;;;;;;21.90;10.85;;;8.70;99.90;;;;;;4984778;28;20634;-64
2022/11/15 04:38:07;;;;;;;22.50;10.90;;;8.70;99.90;;;;;;4985024;28;20233;-63
2022/11/15 04:40:34;;;;;;;25.10;11.83;;;8.70;99.90;;;;;;4995414;28;20237;-63
2022/11/15 04:43:01;;;;;;;23.30;10.53;;;8.80;99.90;;;;;;5001184;28;20278;-63
2022/11/15 04:45:27;;;;;;;25.63;11.67;;;8.80;99.90;;;;;;5003391;28;20232;-63
2022/11/15 04:47:54;;;;;;;27.50;11.27;;;8.80;99.90;;;;;;5005874;28;20228;-67
2022/11/15 04:50:21;;;;;;;16.80;10.73;;;8.80;99.90;;;;;;5001708;28;20232;-64
2022/11/15 04:52:52;;;;;;;25.00;12.90;;;8.90;99.90;;;;;;4992642;28;20283;-63
2022/11/15 04:55:21;;;;;;;21.80;11.30;;;8.90;99.90;;;;;;5014822;28;20944;-63
2022/11/15 04:57:48;;;;;;;20.38;12.10;;;8.90;99.90;;;;;;4999689;28;20225;-63
2022/11/15 05:00:17;;;;;;;19.37;10.67;;;8.90;99.90;;;;;;5002963;28;20347;-63
2022/11/15 05:05:28;;;;;;;19.05;10.63;;;8.90;99.90;;;;;;5019260;28;20889;-62
2022/11/15 05:07:55;;;;;;;20.73;10.68;;;8.90;99.90;;;;;;4985305;28;20248;-63
2022/11/15 05:10:23;;;;;;;25.02;11.27;;;8.90;99.90;;;;;;4998380;28;20232;-63
2022/11/15 05:12:50;;;;;;;21.80;10.23;;;8.90;99.90;;;;;;4988092;28;21270;-64
2022/11/15 05:15:18;;;;;;;16.90;10.57;;;8.90;99.90;;;;;;5015879;28;20218;-63
2022/11/15 05:17:45;;;;;;;18.33;10.18;;;8.90;99.90;;;;;;4979571;28;21176;-63
2022/11/15 05:20:12;;;;;;;19.55;11.15;;;8.90;99.90;;;;;;5018609;28;20229;-63
2022/11/15 05:22:39;;;;;;;17.97;9.70;;;8.90;99.90;;;;;;4980406;28;20221;-63
2022/11/15 05:25:07;;;;;;;15.67;9.73;;;8.90;99.90;;;;;;5013339;28;23301;-63
2022/11/15 05:27:36;;;;;;;15.18;10.45;;;8.90;99.90;;;;;;5014261;28;20237;-63
2022/11/15 05:30:02;;;;;;;23.42;9.85;;;8.90;99.90;;;;;;4999371;28;20229;-62
2022/11/15 05:32:30;;;;;;;16.73;8.63;;;8.90;99.90;;;;;;5008852;28;20324;-62
2022/11/15 05:34:57;;;;;;;17.00;9.23;;;9.00;99.90;;;;;;5012647;28;20875;-63
2022/11/15 05:37:23;;;;;;;14.68;9.82;;;9.00;99.90;;;;;;4982346;28;20750;-63
2022/11/15 05:39:50;;;;;;;21.35;9.80;;;9.00;99.90;;;;;;5018119;28;20315;-63
2022/11/15 05:42:17;;;;;;;20.50;10.23;;;9.00;99.90;;;;;;5026256;28;20225;-63
2022/11/15 05:44:48;;;;;;;19.50;9.77;;;9.00;99.90;;;;;;4991660;28;20225;-63
2022/11/15 05:47:19;;;;;;;15.20;9.02;;;9.00;99.90;;;;;;5009378;28;20217;-63
2022/11/15 05:49:51;;;;;;;13.60;8.87;;;9.10;99.90;;;;;;4995052;28;21422;-63
2022/11/15 05:52:20;;;;;;;15.85;9.23;;;9.10;99.90;;;;;;4967155;28;20240;-63
2022/11/15 05:54:47;;;;;;;14.10;9.20;;;9.10;99.90;;;;;;4981648;28;21198;-62
2022/11/15 05:57:14;;;;;;;15.05;9.52;;;9.10;99.90;;;;;;5001305;28;20225;-63
2022/11/15 05:59:43;;;;;;;16.38;9.68;;;9.10;99.90;;;;;;4993112;28;20221;-62
2022/11/15 06:02:11;;;;;;;18.85;9.38;;;9.20;99.90;;;;;;5007760;28;20218;-63
2022/11/15 06:04:38;;;;;;;12.43;8.07;;;9.20;99.90;;;;;;4987785;28;20221;-63
2022/11/15 06:07:05;;;;;;;14.52;9.50;;;9.20;99.90;;;;;;5005057;28;20218;-64
2022/11/15 06:09:32;;;;;;;15.80;9.30;;;9.20;99.90;;;;;;4976455;28;20234;-62
2022/11/15 06:11:59;;;;;;;14.35;8.45;;;9.20;99.90;;;;;;4991955;28;20236;-63
2022/11/15 06:14:25;;;;;;;13.93;9.07;;;9.20;99.90;;;;;;4983502;28;20232;-63
2022/11/15 06:16:52;;;;;;;14.50;9.15;;;9.20;99.90;;;;;;4997470;28;20234;-62
2022/11/15 06:19:20;;;;;;;13.95;9.82;;;9.20;99.90;;;;;;4969749;28;20230;-63
2022/11/15 06:21:47;;;;;;;12.45;9.10;;;9.20;99.90;;;;;;4996472;28;20243;-63
2022/11/15 06:24:14;;;;;;;14.57;9.50;;;9.30;99.90;;;;;;4977647;28;20210;-63
2022/11/15 06:26:41;;;;;;;12.88;8.63;;;9.30;99.90;;;;;;5008369;28;20984;-63
2022/11/15 06:29:07;;;;;;;15.02;8.93;;;9.30;99.90;;;;;;5003852;28;20218;-63
2022/11/15 06:31:34;;;;;;;12.77;9.25;;;9.30;99.90;;;;;;5007413;28;20222;-63
2022/11/15 06:34:02;;;;;;;12.68;8.35;;;9.30;99.90;;;;;;4989269;28;20233;-63
2022/11/15 06:36:31;;;;;;;16.35;8.27;;;9.30;99.90;;;;;;4994600;28;20222;-63
2022/11/15 06:38:57;;;;;;;10.90;8.07;;;9.30;99.90;;;;;;5002330;28;20706;-63
2022/11/15 06:41:24;;;;;;;16.50;9.40;;;9.30;99.90;;;;;;4972433;28;20234;-63
2022/11/15 06:43:51;;;;;;;13.52;8.50;;;9.40;99.90;;;;;;5011181;28;20198;-63
2022/11/15 06:46:18;;;;;;;13.20;8.65;;;9.40;99.90;;;;;;5002080;28;20210;-62
2022/11/15 06:48:44;;;;;;;12.05;7.38;;;9.40;99.90;;;;;;4997413;28;21008;-63
2022/11/15 06:51:11;;;;;;;14.52;7.32;;;9.40;99.90;;;;;;5013865;28;20581;-63
2022/11/15 06:53:39;;;;;;;11.13;7.78;;;9.50;99.90;;;;;;5011636;28;20198;-63
2022/11/15 06:56:08;;;;;;;13.23;6.85;;;9.50;99.90;;;;;;4976907;28;20214;-63
2022/11/15 06:58:35;;;;;;;10.52;7.60;;;9.60;99.90;;;;;;5014464;28;20221;-63
2022/11/15 07:01:04;;;;;;;13.30;7.18;;;9.60;99.90;;;;;;4994626;28;20230;-64
2022/11/15 07:03:31;;;;;;;10.75;7.32;;;9.60;99.90;;;;;;4989934;28;20975;-63
2022/11/15 07:05:58;;;;;;;9.20;6.85;;;9.60;99.90;;;;;;5006025;28;20221;-64
2022/11/15 07:08:28;;;;;;;11.30;6.80;;;9.60;99.90;;;;;;4985489;28;20241;-63
2022/11/15 07:10:59;;;;;;;13.20;7.47;;;9.60;99.90;;;;;;4984698;28;20221;-63
2022/11/15 07:13:26;;;;;;;11.10;7.07;;;9.70;99.90;;;;;;4991721;28;20229;-63
2022/11/15 07:15:53;;;;;;;9.43;6.60;;;9.70;99.90;;;;;;4998393;28;20221;-63
2022/11/15 07:18:20;;;;;;;10.15;7.65;;;9.70;99.90;;;;;;4999042;28;20213;-64
2022/11/15 07:20:47;;;;;;;12.10;7.50;;;9.80;99.90;;;;;;4994041;28;20222;-64
2022/11/15 07:23:14;;;;;;;12.30;6.63;;;9.80;99.90;;;;;;5011105;28;20205;-63
2022/11/15 07:25:40;;;;;;;9.57;6.80;;;9.80;99.90;;;;;;5010530;28;20202;-63
2022/11/15 07:28:08;;;;;;;10.95;6.75;;;9.80;99.90;;;;;;4977859;28;20209;-63
2022/11/15 07:30:35;;;;;;;9.23;6.68;;;9.80;99.90;;;;;;5010219;28;20722;-63
2022/11/15 07:33:02;;;;;;;11.60;6.82;;;9.90;99.90;;;;;;5002021;28;20213;-63
2022/11/15 07:35:30;;;;;;;10.90;7.18;;;9.90;99.90;;;;;;4998451;28;21113;-63
2022/11/15 07:37:59;;;;;;;10.35;7.90;;;10.00;99.90;;;;;;5019162;28;20676;-63
2022/11/15 07:40:26;;;;;;;10.77;7.28;;;10.00;99.90;;;;;;5010944;28;20572;-63
2022/11/15 07:42:53;;;;;;;10.50;6.68;;;10.10;99.90;;;;;;4992136;28;21225;-63
2022/11/15 07:45:22;;;;;;;9.48;6.97;;;10.10;99.90;;;;;;5002953;28;20212;-63
2022/11/15 07:47:49;;;;;;;15.02;7.65;;;10.10;99.90;;;;;;5002500;28;20197;-63
2022/11/15 07:50:17;;;;;;;15.27;7.50;;;10.10;99.90;;;;;;5014515;28;20204;-63
2022/11/15 07:52:44;;;;;;;10.45;7.40;;;10.10;99.90;;;;;;5005611;28;20629;-63
2022/11/15 07:55:10;;;;;;;11.32;7.55;;;10.20;99.90;;;;;;5010294;28;20218;-63
2022/11/15 07:57:37;;;;;;;14.70;7.13;;;10.20;99.90;;;;;;4989014;28;20226;-63
2022/11/15 08:00:05;;;;;;;10.80;7.72;;;10.20;99.90;;;;;;5003461;28;20501;-63
2022/11/15 08:02:34;;;;;;;11.57;7.47;;;10.20;99.90;;;;;;5004967;28;20229;-63
2022/11/15 08:05:00;;;;;;;14.40;7.65;;;10.30;99.90;;;;;;4998656;28;21540;-63
2022/11/15 08:07:31;;;;;;;13.25;7.72;;;10.30;99.90;;;;;;5001813;28;20225;-63
2022/11/15 08:09:58;;;;;;;13.27;7.40;;;10.30;99.90;;;;;;5012429;28;20932;-63
2022/11/15 08:12:25;;;;;;;8.60;7.50;;;10.40;99.90;;;;;;5015570;28;20202;-62
2022/11/15 08:14:52;;;;;;;15.27;8.15;;;10.40;99.90;;;;;;4976875;28;20676;-63
2022/11/15 08:17:19;;;;;;;18.55;9.18;;;10.40;99.90;;;;;;5002702;28;20573;-64
2022/11/15 08:19:47;;;;;;;12.50;7.95;;;10.40;99.90;;;;;;4988018;28;20218;-63
2022/11/15 08:22:14;;;;;;;15.30;8.23;;;10.40;99.90;;;;;;5011147;28;20710;-63
2022/11/15 08:24:41;;;;;;;15.98;8.82;;;10.50;99.90;;;;;;4999891;28;20198;-63
2022/11/15 08:27:14;;;;;;;14.50;8.43;;;10.50;99.90;;;;;;4995571;28;20206;-61
2022/11/15 08:29:41;;;;;;;13.10;7.55;;;10.50;99.90;;;;;;4986252;28;20260;-61
2022/11/15 08:32:08;;;;;;;11.13;8.00;;;10.60;99.90;;;;;;5004387;28;20218;-62
2022/11/15 08:34:35;;;;;;;11.65;7.80;;;10.70;99.90;;;;;;4997961;28;20210;-62
2022/11/15 08:37:03;;;;;;;13.10;8.88;;;10.70;99.90;;;;;;4995328;28;20198;-61
2022/11/15 08:39:30;;;;;;;12.00;7.35;;;10.70;99.90;;;;;;5000025;28;20198;-61
2022/11/15 08:41:57;;;;;;;11.27;8.07;;;10.80;99.90;;;;;;5014696;28;20604;-61
2022/11/15 08:44:24;;;;;;;13.07;8.80;;;10.80;99.90;;;;;;4983795;28;20206;-63
2022/11/15 08:46:51;;;;;;;14.75;8.32;;;10.80;99.90;;;;;;5003980;28;20293;-63
2022/11/15 08:49:18;;;;;;;16.27;9.00;;;10.80;99.90;;;;;;5016617;28;20209;-64
2022/11/15 08:51:45;;;;;;;13.93;7.75;;;10.90;99.90;;;;;;4990618;28;20200;-63
2022/11/15 08:54:13;;;;;;;12.05;8.20;;;10.90;99.90;;;;;;5003004;28;20217;-63
2022/11/15 08:56:40;;;;;;;11.95;7.57;;;10.90;99.90;;;;;;5000458;28;20217;-63
2022/11/15 08:59:07;;;;;;;15.38;8.18;;;10.90;99.90;;;;;;5008175;28;20217;-63
2022/11/15 09:01:34;;;;;;;11.27;8.02;;;10.90;99.90;;;;;;4958158;28;20244;-63
2022/11/15 09:04:00;;;;;;;11.02;8.23;;;11.00;99.90;;;;;;5009554;28;20218;-63
2022/11/15 09:06:27;;;;;;;9.98;7.15;;;11.10;99.90;;;;;;4984634;28;20226;-64
2022/11/15 09:08:54;;;;;;;13.70;8.60;;;11.00;99.90;;;;;;5000143;28;20238;-63
2022/11/15 09:11:23;;;;;;;12.23;7.68;;;11.10;99.90;;;;;;5005784;28;20202;-63
2022/11/15 09:13:50;;;;;;;12.77;7.97;;;11.10;99.90;;;;;;5012284;28;20691;-63
2022/11/15 09:16:16;;;;;;;13.68;8.13;;;11.10;99.90;;;;;;4975484;28;20206;-64
2022/11/15 09:18:43;;;;;;;11.60;8.43;;;11.20;99.90;;;;;;5013054;28;20194;-64
2022/11/15 09:21:10;;;;;;;13.70;8.05;;;11.20;99.90;;;;;;5004103;28;20409;-64
2022/11/15 09:23:37;;;;;;;12.73;8.27;;;11.20;99.90;;;;;;5001458;28;20202;-64
2022/11/15 09:26:05;;;;;;;15.00;7.38;;;11.20;99.90;;;;;;4982279;28;20206;-64
2022/11/15 09:28:34;;;;;;;17.52;8.15;;;11.20;99.90;;;;;;5007941;28;20214;-65
2022/11/15 09:31:02;;;;;;;10.10;7.43;;;11.20;99.90;;;;;;4974188;28;20209;-64
2022/11/15 09:33:30;;;;;;;12.88;7.88;;;11.30;99.90;;;;;;5000590;28;20206;-64
2022/11/15 09:36:01;;;;;;;9.38;6.88;;;11.30;99.90;;;;;;5002036;28;20210;-64
2022/11/15 09:38:28;;;;;;;11.05;7.40;;;11.30;99.90;;;;;;4998857;28;20206;-64
2022/11/15 09:41:23;;;;;;;9.77;7.13;;;11.40;99.90;;;;;;5002376;28;20203;-64
2022/11/15 09:44:04;;;;;;;9.98;7.53;;;11.40;99.90;;;;;;4992080;28;20215;-64
2022/11/15 09:46:42;;;;;;;11.70;7.38;;;11.40;99.90;;;;;;4985135;28;20216;-63
2022/11/15 09:49:10;;;;;;;11.20;7.35;;;11.40;99.90;;;;;;5003133;28;20202;-63
2022/11/15 09:51:46;;;;;;;10.45;6.82;;;11.40;99.90;;;;;;5000571;28;20205;-64
2022/11/15 09:54:22;;;;;;;12.55;7.05;;;11.40;99.90;;;;;;5004942;28;20201;-64
2022/11/15 09:56:51;;;;;;;9.02;6.32;;;11.40;99.90;;;;;;4988740;28;20201;-63
2022/11/15 09:59:44;;;;;;;8.93;7.25;;;11.40;99.90;;;;;;5009002;28;20202;-64
2022/11/15 10:02:23;;;;;;;9.85;7.03;;;11.50;99.90;;;;;;4976907;28;20767;-64
2022/11/15 10:04:51;;;;;;;11.77;6.93;;;11.50;99.90;;;;;;5003069;28;20206;-64
2022/11/15 10:07:26;;;;;;;9.82;7.20;;;11.60;99.90;;;;;;5000798;28;20256;-63
2022/11/15 10:09:56;;;;;;;10.05;7.00;;;11.60;99.90;;;;;;4989591;28;20719;-63
2022/11/15 10:12:24;;;;;;;12.15;7.22;;;11.60;99.90;;;;;;5008565;28;20202;-64
2022/11/15 10:14:59;;;;;;;16.48;6.93;;;11.70;99.90;;;;;;5010679;28;20194;-64
2022/11/15 10:17:50;;;;;;;10.70;6.63;;;11.80;99.90;;;;;;4984503;28;20216;-64
2022/11/15 10:20:21;;;;;;;9.05;6.75;;;11.80;99.90;;;;;;4996105;28;20899;-63
2022/11/15 10:22:51;;;;;;;9.98;6.20;;;11.90;99.90;;;;;;4997211;28;20267;-64
2022/11/15 10:25:21;;;;;;;9.57;6.32;;;11.80;99.90;;;;;;4972395;28;20209;-63
2022/11/15 10:27:56;;;;;;;10.65;6.90;;;11.90;99.90;;;;;;5008356;28;20707;-64
2022/11/15 10:30:32;;;;;;;8.52;6.47;;;12.00;99.90;;;;;;4996994;28;20209;-65
2022/11/15 10:33:00;;;;;;;9.02;6.65;;;12.10;99.90;;;;;;4980645;28;21677;-65
2022/11/15 10:35:29;;;;;;;9.45;6.85;;;12.20;99.90;;;;;;4998803;28;20213;-64
2022/11/15 10:38:07;;;;;;;8.32;6.43;;;12.20;99.90;;;;;;4995404;28;20216;-64
2022/11/15 10:40:34;;;;;;;10.68;6.47;;;12.20;99.90;;;;;;5001688;28;20204;-64
2022/11/15 10:43:15;;;;;;;7.82;6.15;;;12.20;99.90;;;;;;5004427;28;20226;-64
2022/11/15 10:45:44;;;;;;;8.95;5.75;;;12.20;99.90;;;;;;5005392;28;20205;-64
2022/11/15 10:48:26;;;;;;;9.77;6.28;;;12.20;99.90;;;;;;5004623;28;20223;-64
2022/11/15 10:50:54;;;;;;;7.32;6.15;;;12.20;99.90;;;;;;4968235;28;20202;-64
2022/11/15 10:53:26;;;;;;;9.55;5.95;;;12.20;99.90;;;;;;5015395;28;20205;-64
2022/11/15 10:55:56;;;;;;;8.13;5.68;;;12.20;99.90;;;;;;4993273;28;20202;-64
2022/11/15 10:58:35;;;;;;;7.97;5.93;;;12.20;99.90;;;;;;5008906;28;20293;-64
2022/11/15 11:01:18;;;;;;;6.45;5.85;;;12.20;99.90;;;;;;4997996;28;20209;-64
2022/11/15 11:03:46;;;;;;;9.50;5.40;;;12.20;99.90;;;;;;5009170;28;20209;-63
2022/11/15 11:06:15;;;;;;;7.47;5.78;;;12.20;99.90;;;;;;4984695;28;20214;-64
2022/11/15 11:08:55;;;;;;;7.47;6.00;;;12.30;99.90;;;;;;5016226;28;20225;-64
2022/11/15 11:11:22;;;;;;;7.90;5.45;;;12.30;99.90;;;;;;4992234;28;20232;-64
2022/11/15 11:13:49;;;;;;;7.68;6.00;;;12.30;99.90;;;;;;5013240;28;20197;-64
2022/11/15 11:16:32;;;;;;;8.15;5.35;;;12.30;99.90;;;;;;5015618;28;20202;-63
2022/11/15 11:19:09;;;;;;;6.40;5.28;;;12.40;99.90;;;;;;5012171;28;20205;-64
2022/11/15 11:21:44;;;;;;;8.05;5.80;;;12.50;99.90;;;;;;4988881;28;20325;-64
2022/11/15 11:24:19;;;;;;;10.10;5.40;;;12.60;99.90;;;;;;5014014;28;20252;-64
2022/11/15 11:26:57;;;;;;;5.90;4.75;;;12.60;99.90;;;;;;4998063;28;20201;-65
2022/11/15 11:29:35;;;;;;;7.43;5.38;;;12.60;99.90;;;;;;5015085;28;20202;-65
2022/11/15 11:32:16;;;;;;;8.50;5.03;;;12.60;99.90;;;;;;5001160;28;20746;-66
2022/11/15 11:34:57;;;;;;;6.68;4.88;;;12.60;99.90;;;;;;5015527;28;20233;-63
2022/11/15 11:37:33;;;;;;;8.85;5.15;;;12.60;99.90;;;;;;4982530;28;20222;-64
2022/11/15 11:40:17;;;;;;;7.60;5.22;;;12.60;99.90;;;;;;4992559;28;20206;-64
2022/11/15 11:42:50;;;;;;;5.35;4.65;;;12.60;99.90;;;;;;4996943;28;20221;-64
2022/11/15 11:45:24;;;;;;;7.63;5.00;;;12.60;99.90;;;;;;5006839;28;20241;-65
2022/11/15 11:48:09;;;;;;;7.53;4.90;;;12.60;99.90;;;;;;5010189;28;20221;-65
2022/11/15 11:50:38;;;;;;;6.28;4.70;;;12.70;99.90;;;;;;4992635;28;20198;-65
2022/11/15 11:53:13;;;;;;;6.53;4.88;;;12.80;99.90;;;;;;4986639;28;20206;-64
2022/11/15 11:55:43;;;;;;;5.78;4.90;;;12.70;99.90;;;;;;4997397;28;20206;-63
2022/11/15 11:58:16;;;;;;;7.47;4.68;;;12.80;99.90;;;;;;4993626;28;20668;-64
2022/11/15 12:00:48;;;;;;;5.90;4.43;;;12.80;99.90;;;;;;5012926;28;20208;-64
2022/11/15 12:03:25;;;;;;;7.60;4.55;;;12.80;99.90;;;;;;5011971;28;20238;-65
2022/11/15 12:05:55;;;;;;;5.82;4.60;;;12.80;99.90;;;;;;5013844;28;20202;-64
2022/11/15 12:08:32;;;;;;;5.65;4.35;;;12.90;99.90;;;;;;4981840;28;20724;-64
2022/11/15 12:11:07;;;;;;;6.40;4.72;;;12.90;99.90;;;;;;5014235;28;20217;-64
2022/11/15 12:13:36;;;;;;;5.57;4.25;;;12.90;99.90;;;;;;5004628;28;20201;-64
2022/11/15 12:16:08;;;;;;;4.53;4.10;;;12.90;99.90;;;;;;4997191;28;20231;-64
2022/11/15 12:18:36;;;;;;;8.90;4.32;;;12.90;99.90;;;;;;5008942;28;20202;-64
2022/11/15 12:21:08;;;;;;;6.30;3.88;;;12.90;99.90;;;;;;5012386;28;20198;-64
2022/11/15 12:23:42;;;;;;;7.82;4.22;;;12.90;99.90;;;;;;4981573;28;21598;-64
2022/11/15 12:26:15;;;;;;;4.25;3.85;;;13.00;99.90;;;;;;5005071;28;20217;-64
2022/11/15 12:28:48;;;;;;;5.20;4.05;;;13.00;99.90;;;;;;5003415;28;20202;-64
2022/11/15 12:31:18;;;;;;;4.72;4.10;;;13.00;99.90;;;;;;4990895;28;20672;-65
2022/11/15 12:33:48;;;;;;;7.43;3.70;;;13.20;99.90;;;;;;5012427;28;20245;-63
2022/11/15 12:36:35;;;;;;;5.80;4.13;;;13.10;99.90;;;;;;5002910;28;20217;-64
2022/11/15 12:39:04;;;;;;;5.22;3.38;;;13.10;99.90;;;;;;4984117;28;20648;-65
2022/11/15 12:41:32;;;;;;;5.35;4.00;;;13.10;99.90;;;;;;5008146;28;20226;-64
2022/11/15 12:43:59;;;;;;;7.25;3.70;;;13.10;99.90;;;;;;5005782;28;20230;-65
2022/11/15 12:47:02;;;;;;;5.50;3.53;;;13.10;99.90;;;;;;4990697;28;20903;-64
2022/11/15 12:49:49;;;;;;;5.28;3.42;;;13.10;99.90;;;;;;5008943;28;20553;-64
2022/11/15 12:52:17;;;;;;;4.63;3.85;;;13.10;99.90;;;;;;5002503;28;20214;-64
2022/11/15 12:54:56;;;;;;;7.18;4.22;;;13.00;99.90;;;;;;4986750;28;20206;-64
2022/11/15 12:57:33;;;;;;;5.50;3.60;;;13.00;99.90;;;;;;5007279;28;20780;-66
2022/11/15 13:00:03;;;;;;;3.78;3.25;;;13.00;99.90;;;;;;4971336;28;21423;-64
2022/11/15 13:02:32;;;;;;;3.72;3.20;;;13.00;99.90;;;;;;4981295;28;20233;-64
2022/11/15 13:05:35;;;;;;;5.55;3.20;;;12.90;99.90;;;;;;4990866;28;20215;-65
2022/11/15 13:08:03;;;;;;;5.15;3.13;;;13.00;99.90;;;;;;4968642;28;20229;-64
2022/11/15 13:10:32;;;;;;;4.85;3.00;;;13.00;99.90;;;;;;4969924;28;21025;-65